createdAt,value
2019-05-02T00:03:53.944Z,13.62
2019-05-02T00:08:58.846Z,13.25
2019-05-02T00:14:09.352Z,14.36
2019-05-02T00:19:14.294Z,11.29
2019-05-02T00:24:18.994Z,14.00
2019-05-02T00:29:23.690Z,14.00
2019-05-02T00:34:34.223Z,15.36
2019-05-02T00:39:38.784Z,15.50
2019-05-02T00:44:48.188Z,15.25
2019-05-02T00:49:54.782Z,16.25
2019-05-02T00:55:01.351Z,15.75
2019-05-02T01:00:16.367Z,17.50
2019-05-02T01:05:22.924Z,17.00
2019-05-02T01:10:29.203Z,16.00
2019-05-02T01:15:39.115Z,17.37
2019-05-02T01:20:44.126Z,19.75
2019-05-02T01:25:54.499Z,17.62
2019-05-02T01:31:01.595Z,21.78
2019-05-02T01:36:10.422Z,18.89
2019-05-02T01:41:18.305Z,22.00
2019-05-02T01:46:27.116Z,23.50
2019-05-02T01:51:36.791Z,21.62
2019-05-02T01:56:40.466Z,25.50
2019-05-02T02:01:47.804Z,25.00
2019-05-02T02:06:54.096Z,23.75
2019-05-02T02:12:04.946Z,23.00
2019-05-02T02:17:10.060Z,24.50
2019-05-02T02:22:16.439Z,24.00
2019-05-02T02:27:24.663Z,24.00
2019-05-02T02:32:30.691Z,25.25
2019-05-02T02:37:37.833Z,23.44
2019-05-02T02:42:44.329Z,23.67
2019-05-02T02:47:52.872Z,21.00
2019-05-02T02:52:58.028Z,23.00
2019-05-02T02:58:04.712Z,22.00
2019-05-02T03:03:11.133Z,21.62
2019-05-02T03:08:15.900Z,20.00
2019-05-02T03:13:21.636Z,24.00
2019-05-02T03:18:39.719Z,21.25
2019-05-02T03:23:38.758Z,22.00
2019-05-02T03:28:57.124Z,21.00
2019-05-02T03:33:59.771Z,20.62
2019-05-02T03:39:00.139Z,20.50
2019-05-02T03:44:11.306Z,21.00
2019-05-02T03:49:15.873Z,21.00
2019-05-02T03:54:22.384Z,20.00
2019-05-02T03:59:37.183Z,25.50
2019-05-02T04:04:36.170Z,18.33
2019-05-02T04:09:43.452Z,20.00
2019-05-02T04:14:55.574Z,20.00
2019-05-02T04:20:09.409Z,20.83
2019-05-02T04:25:10.893Z,15.75
2019-05-02T04:30:15.709Z,14.25
2019-05-02T04:35:28.732Z,14.00
2019-05-02T04:40:41.782Z,15.91
2019-05-02T04:45:55.249Z,13.00
2019-05-02T04:50:51.771Z,13.00
2019-05-02T04:56:05.094Z,11.75
2019-05-02T05:01:02.258Z,10.00
2019-05-02T05:06:12.236Z,13.38
2019-05-02T05:11:20.838Z,14.63
2019-05-02T05:16:23.712Z,11.63
2019-05-02T05:21:29.593Z,7.86
2019-05-02T05:26:40.987Z,15.50
2019-05-02T05:31:42.828Z,18.87
2019-05-02T05:36:51.161Z,14.50
2019-05-02T05:41:59.588Z,13.00
2019-05-02T05:47:07.245Z,14.00
2019-05-02T05:52:11.881Z,14.00
2019-05-02T05:57:17.462Z,10.00
2019-05-02T06:02:22.409Z,15.50
2019-05-02T06:07:33.604Z,12.13
2019-05-02T06:12:37.210Z,10.38
2019-05-02T06:17:45.644Z,13.13
2019-05-02T06:22:54.952Z,11.57
2019-05-02T06:28:00.296Z,20.43
2019-05-02T06:33:07.390Z,14.00
2019-05-02T06:38:14.211Z,10.63
2019-05-02T06:43:17.679Z,17.00
2019-05-02T06:48:22.902Z,13.00
2019-05-02T06:53:29.009Z,21.62
2019-05-02T06:58:41.385Z,17.75
2019-05-02T07:03:46.272Z,17.00
2019-05-02T07:08:50.742Z,13.75
2019-05-02T07:13:55.943Z,17.00
2019-05-02T07:19:02.161Z,15.00
2019-05-02T07:24:06.626Z,17.75
2019-05-02T07:29:11.143Z,14.00
2019-05-02T07:34:14.709Z,15.33
2019-05-02T07:39:23.427Z,12.63
2019-05-02T07:44:32.580Z,12.86
2019-05-02T07:49:35.701Z,14.00
2019-05-02T07:54:41.711Z,17.75
2019-05-02T07:59:49.896Z,15.43
2019-05-02T08:05:00.014Z,19.87
2019-05-02T08:10:05.909Z,17.25
2019-05-02T08:15:13.356Z,15.25
2019-05-02T08:20:21.300Z,13.13
2019-05-02T08:25:29.084Z,13.62
2019-05-02T08:30:40.393Z,15.00
2019-05-02T08:35:45.408Z,15.50
2019-05-02T08:40:49.778Z,14.00
2019-05-02T08:45:58.378Z,17.25
2019-05-02T08:51:02.127Z,15.67
2019-05-02T08:56:07.553Z,14.00
2019-05-02T09:01:13.724Z,16.00
2019-05-02T09:06:17.210Z,10.00
2019-05-02T09:11:26.412Z,13.00
2019-05-02T09:16:32.863Z,14.00
2019-05-02T09:21:37.907Z,16.75
2019-05-02T09:26:43.320Z,11.14
2019-05-02T09:31:50.348Z,11.12
2019-05-02T09:36:53.250Z,19.00
2019-05-02T09:41:58.741Z,16.43
2019-05-02T09:47:02.439Z,15.00
2019-05-02T09:52:08.514Z,11.75
2019-05-02T09:57:14.776Z,13.86
2019-05-02T10:02:22.242Z,17.00
2019-05-02T10:07:29.588Z,21.87
2019-05-02T10:12:38.833Z,17.50
2019-05-02T10:17:46.756Z,18.50
2019-05-02T10:22:49.107Z,19.00
2019-05-02T10:27:53.359Z,19.00
2019-05-02T10:33:02.525Z,13.57
2019-05-02T10:38:17.996Z,24.50
2019-05-02T10:43:18.154Z,14.63
2019-05-02T10:48:28.014Z,20.00
2019-05-02T10:53:26.527Z,11.33
2019-05-02T10:58:35.798Z,14.00
2019-05-02T11:03:43.736Z,22.62
2019-05-02T11:08:49.552Z,11.43
2019-05-02T11:14:00.449Z,16.00
2019-05-02T11:19:03.034Z,17.25
2019-05-02T11:24:07.352Z,15.00
2019-05-02T11:29:13.577Z,17.50
2019-05-02T11:34:22.106Z,17.00
2019-05-02T11:39:40.962Z,22.00
2019-05-02T11:44:36.387Z,17.50
2019-05-02T11:49:42.329Z,24.00
2019-05-02T11:54:52.124Z,18.00
2019-05-02T11:59:59.472Z,15.00
2019-05-02T12:05:04.764Z,26.00
2019-05-02T12:10:09.646Z,20.00
2019-05-02T12:15:18.124Z,21.25
2019-05-02T12:20:28.545Z,15.29
2019-05-02T12:25:33.098Z,19.50
2019-05-02T12:30:37.821Z,17.00
2019-05-02T12:35:43.468Z,16.86
2019-05-02T12:40:48.793Z,16.29
2019-05-02T12:45:52.954Z,17.25
2019-05-02T12:50:57.102Z,11.60
2019-05-02T12:56:03.593Z,17.62
2019-05-02T13:01:07.310Z,17.50
2019-05-02T13:06:15.328Z,17.37
2019-05-02T13:11:22.764Z,14.00
2019-05-02T13:16:29.106Z,16.00
2019-05-02T13:21:41.461Z,17.25
2019-05-02T13:26:42.908Z,17.00
2019-05-02T13:31:48.339Z,15.14
2019-05-02T13:36:57.848Z,15.50
2019-05-02T13:42:03.557Z,13.00
2019-05-02T13:47:07.375Z,20.00
2019-05-02T13:52:11.870Z,8.67
2019-05-02T13:57:17.195Z,17.00
2019-05-02T14:02:39.920Z,25.67
2019-05-02T14:07:48.395Z,11.00
2019-05-02T14:12:52.837Z,13.50
2019-05-02T14:17:58.894Z,12.86
2019-05-02T14:23:06.179Z,13.75
2019-05-02T14:28:09.643Z,13.00
2019-05-02T14:33:12.780Z,24.67
2019-05-02T14:38:18.310Z,15.29
2019-05-02T14:43:22.971Z,10.00
2019-05-02T14:48:28.317Z,11.25
2019-05-02T14:53:32.076Z,14.75
2019-05-02T14:58:37.746Z,11.00
2019-05-02T15:03:42.317Z,11.00
2019-05-02T15:08:49.603Z,15.75
2019-05-02T15:13:56.716Z,12.00
2019-05-02T15:19:02.094Z,17.00
2019-05-02T15:24:04.980Z,13.00
2019-05-02T15:29:12.276Z,19.00
2019-05-02T15:34:13.430Z,13.00
2019-05-02T15:44:27.022Z,17.25
2019-05-02T15:49:36.686Z,10.57
2019-05-02T15:54:42.542Z,9.67
2019-05-02T15:59:47.367Z,10.00
2019-05-02T16:04:56.914Z,10.50
2019-05-02T16:10:01.096Z,9.67
2019-05-02T16:15:12.950Z,11.43
2019-05-02T16:20:13.547Z,12.29
2019-05-02T16:25:19.984Z,12.00
2019-05-02T16:30:24.808Z,11.71
2019-05-02T16:35:31.677Z,10.00
2019-05-02T16:40:41.767Z,11.90
2019-05-02T16:45:45.678Z,9.67
2019-05-02T16:50:50.272Z,13.00
2019-05-02T16:55:58.400Z,10.29
2019-05-02T17:01:01.112Z,10.57
2019-05-02T17:06:04.768Z,11.00
2019-05-02T17:11:08.384Z,13.50
2019-05-02T17:16:17.077Z,13.57
2019-05-02T17:21:22.059Z,13.00
2019-05-02T17:26:28.022Z,11.00
2019-05-02T17:31:32.564Z,12.71
2019-05-02T17:36:37.244Z,14.00
2019-05-02T17:41:42.303Z,13.00
2019-05-02T17:46:50.693Z,13.88
2019-05-02T17:52:05.402Z,14.13
2019-05-02T17:57:02.604Z,12.29
2019-05-02T18:02:12.298Z,12.71
2019-05-02T18:07:18.065Z,13.71
2019-05-02T18:12:21.798Z,20.00
2019-05-02T18:17:29.146Z,14.38
2019-05-02T18:22:34.830Z,23.00
2019-05-02T18:27:42.121Z,12.75
2019-05-02T18:32:52.878Z,22.00
2019-05-02T18:38:02.548Z,23.87
2019-05-02T18:43:11.575Z,16.50
2019-05-02T18:48:18.523Z,20.00
2019-05-02T18:53:25.776Z,19.00
2019-05-02T18:58:28.502Z,18.67
2019-05-02T19:03:33.428Z,19.50
2019-05-02T19:08:46.777Z,21.75
2019-05-02T19:13:52.498Z,21.12
2019-05-02T19:18:58.370Z,16.62
2019-05-02T19:24:02.430Z,24.67
2019-05-02T19:29:08.385Z,24.33
2019-05-02T19:34:16.837Z,15.63
2019-05-02T19:39:23.929Z,20.00
2019-05-02T19:44:29.461Z,20.00
2019-05-02T19:49:35.834Z,21.50
2019-05-02T19:54:45.202Z,21.87
2019-05-02T19:59:52.445Z,15.38
2019-05-02T20:04:59.928Z,18.25
2019-05-02T20:10:08.206Z,22.50
2019-05-02T20:15:17.068Z,20.00
2019-05-02T20:20:35.856Z,17.12
2019-05-02T20:25:40.139Z,22.00
2019-05-02T20:30:48.771Z,22.00
2019-05-02T20:35:54.917Z,24.00
2019-05-02T20:41:04.372Z,22.00
2019-05-02T20:46:13.085Z,23.00
2019-05-02T20:51:16.828Z,24.25
2019-05-02T20:56:27.976Z,23.25
2019-05-02T21:01:39.872Z,23.00
2019-05-02T21:06:45.956Z,23.00
2019-05-02T21:11:52.508Z,23.00
2019-05-02T21:16:56.976Z,26.00
2019-05-02T21:22:07.234Z,24.00
2019-05-02T21:27:15.226Z,30.37
2019-05-02T21:32:22.981Z,23.38
2019-05-02T21:37:31.845Z,25.11
2019-05-02T21:42:38.317Z,0.50
2019-05-02T21:47:42.590Z,29.00
2019-05-02T21:52:52.586Z,24.00
2019-05-02T21:57:59.587Z,24.00
2019-05-02T22:03:04.663Z,24.75
2019-05-02T22:08:08.879Z,26.75
2019-05-02T22:13:14.716Z,24.00
2019-05-02T22:18:22.172Z,28.75
2019-05-02T22:23:33.682Z,25.50
2019-05-02T22:28:39.751Z,27.00
2019-05-02T22:33:48.856Z,25.62
2019-05-02T22:38:57.118Z,26.11
2019-05-02T22:44:02.192Z,24.00
2019-05-02T22:49:09.166Z,25.75
2019-05-02T22:54:29.953Z,23.00
2019-05-02T22:59:28.062Z,26.00
2019-05-02T23:04:37.254Z,26.62
2019-05-02T23:09:43.709Z,26.00
2019-05-02T23:14:49.669Z,27.00
2019-05-02T23:19:57.979Z,25.88
2019-05-02T23:25:04.758Z,26.75
2019-05-02T23:30:14.213Z,26.37
2019-05-02T23:35:19.139Z,26.00
2019-05-02T23:40:24.900Z,26.00
2019-05-02T23:45:32.347Z,23.38
2019-05-02T23:50:41.474Z,24.00
2019-05-02T23:55:50.603Z,24.37
